sensor_id;sensor_type;location;lat;lon;timestamp;P1;durP1;ratioP1;P2;durP2;ratioP2
28252;SDS011;15515;45.588;5.276;2022-11-25T06:19:55;16.17;;;6.43;;
28252;SDS011;15515;45.588;5.276;2022-11-25T06:22:23;13.15;;;6.10;;
28252;SDS011;15515;45.588;5.276;2022-11-25T06:24:51;11.85;;;6.70;;
28252;SDS011;15515;45.588;5.276;2022-11-25T06:30:00;13.60;;;6.20;;
28252;SDS011;15515;45.588;5.276;2022-11-25T06:32:27;13.13;;;5.95;;
28252;SDS011;15515;45.588;5.276;2022-11-25T06:35:16;21.00;;;7.65;;
28252;SDS011;15515;45.588;5.276;2022-11-25T06:37:51;14.25;;;7.13;;
28252;SDS011;15515;45.588;5.276;2022-11-25T06:40:18;19.85;;;7.93;;
28252;SDS011;15515;45.588;5.276;2022-11-25T06:42:46;18.17;;;8.30;;
28252;SDS011;15515;45.588;5.276;2022-11-25T06:45:13;14.02;;;7.32;;
28252;SDS011;15515;45.588;5.276;2022-11-25T06:47:41;21.15;;;9.60;;
28252;SDS011;15515;45.588;5.276;2022-11-25T06:50:08;15.00;;;7.70;;
28252;SDS011;15515;45.588;5.276;2022-11-25T06:52:36;12.68;;;7.10;;
28252;SDS011;15515;45.588;5.276;2022-11-25T06:55:03;15.25;;;6.80;;
28252;SDS011;15515;45.588;5.276;2022-11-25T06:57:31;15.85;;;6.82;;
28252;SDS011;15515;45.588;5.276;2022-11-25T06:59:58;8.77;;;4.90;;
28252;SDS011;15515;45.588;5.276;2022-11-25T07:02:26;12.85;;;6.65;;
28252;SDS011;15515;45.588;5.276;2022-11-25T07:04:54;13.20;;;6.10;;
28252;SDS011;15515;45.588;5.276;2022-11-25T07:07:23;14.13;;;7.10;;
28252;SDS011;15515;45.588;5.276;2022-11-25T07:09:51;19.42;;;7.75;;
28252;SDS011;15515;45.588;5.276;2022-11-25T07:12:18;17.05;;;8.40;;
28252;SDS011;15515;45.588;5.276;2022-11-25T07:14:48;17.92;;;7.88;;
28252;SDS011;15515;45.588;5.276;2022-11-25T07:17:16;15.95;;;7.97;;
28252;SDS011;15515;45.588;5.276;2022-11-25T07:19:46;17.05;;;9.48;;
28252;SDS011;15515;45.588;5.276;2022-11-25T07:22:13;20.15;;;8.35;;
28252;SDS011;15515;45.588;5.276;2022-11-25T07:24:41;14.13;;;7.78;;
28252;SDS011;15515;45.588;5.276;2022-11-25T07:27:08;15.90;;;7.43;;
28252;SDS011;15515;45.588;5.276;2022-11-25T07:29:36;17.27;;;8.10;;
28252;SDS011;15515;45.588;5.276;2022-11-25T07:32:23;16.70;;;7.82;;
28252;SDS011;15515;45.588;5.276;2022-11-25T07:34:53;14.75;;;7.47;;
28252;SDS011;15515;45.588;5.276;2022-11-25T07:37:21;15.43;;;7.65;;
28252;SDS011;15515;45.588;5.276;2022-11-25T07:39:48;16.27;;;6.78;;
28252;SDS011;15515;45.588;5.276;2022-11-25T07:42:16;15.20;;;7.18;;
28252;SDS011;15515;45.588;5.276;2022-11-25T07:44:43;20.08;;;7.55;;
28252;SDS011;15515;45.588;5.276;2022-11-25T07:47:32;18.40;;;7.30;;
28252;SDS011;15515;45.588;5.276;2022-11-25T07:50:00;17.52;;;7.57;;
28252;SDS011;15515;45.588;5.276;2022-11-25T07:52:28;19.73;;;6.28;;
28252;SDS011;15515;45.588;5.276;2022-11-25T07:54:55;14.27;;;7.03;;
28252;SDS011;15515;45.588;5.276;2022-11-25T07:57:23;13.70;;;6.40;;
28252;SDS011;15515;45.588;5.276;2022-11-25T07:59:50;13.02;;;6.13;;
28252;SDS011;15515;45.588;5.276;2022-11-25T08:02:17;15.43;;;6.40;;
28252;SDS011;15515;45.588;5.276;2022-11-25T08:04:45;15.15;;;6.47;;
28252;SDS011;15515;45.588;5.276;2022-11-25T08:07:12;16.55;;;6.00;;
28252;SDS011;15515;45.588;5.276;2022-11-25T08:09:40;23.20;;;7.65;;
28252;SDS011;15515;45.588;5.276;2022-11-25T08:12:07;19.13;;;6.22;;
28252;SDS011;15515;45.588;5.276;2022-11-25T08:14:34;16.27;;;6.72;;
28252;SDS011;15515;45.588;5.276;2022-11-25T08:17:02;18.30;;;7.28;;
28252;SDS011;15515;45.588;5.276;2022-11-25T08:19:31;18.13;;;7.35;;
28252;SDS011;15515;45.588;5.276;2022-11-25T08:21:58;12.90;;;6.25;;
28252;SDS011;15515;45.588;5.276;2022-11-25T08:24:26;14.93;;;7.07;;
28252;SDS011;15515;45.588;5.276;2022-11-25T08:26:53;10.98;;;7.00;;
28252;SDS011;15515;45.588;5.276;2022-11-25T08:29:24;14.38;;;7.07;;
28252;SDS011;15515;45.588;5.276;2022-11-25T08:31:51;14.80;;;7.10;;
28252;SDS011;15515;45.588;5.276;2022-11-25T08:34:21;22.45;;;7.53;;
28252;SDS011;15515;45.588;5.276;2022-11-25T08:39:20;12.77;;;7.15;;
28252;SDS011;15515;45.588;5.276;2022-11-25T08:42:02;16.10;;;7.90;;
28252;SDS011;15515;45.588;5.276;2022-11-25T08:44:30;20.50;;;8.32;;
28252;SDS011;15515;45.588;5.276;2022-11-25T08:46:57;23.70;;;8.85;;
28252;SDS011;15515;45.588;5.276;2022-11-25T08:49:25;16.55;;;8.43;;
28252;SDS011;15515;45.588;5.276;2022-11-25T08:51:54;26.75;;;9.27;;
28252;SDS011;15515;45.588;5.276;2022-11-25T08:54:22;24.27;;;9.77;;
28252;SDS011;15515;45.588;5.276;2022-11-25T08:56:49;18.85;;;8.63;;
28252;SDS011;15515;45.588;5.276;2022-11-25T08:59:17;20.13;;;8.13;;
28252;SDS011;15515;45.588;5.276;2022-11-25T09:01:44;25.30;;;9.43;;
28252;SDS011;15515;45.588;5.276;2022-11-25T09:04:12;21.65;;;8.55;;
28252;SDS011;15515;45.588;5.276;2022-11-25T09:06:39;17.30;;;8.75;;
28252;SDS011;15515;45.588;5.276;2022-11-25T09:09:07;21.55;;;8.70;;
28252;SDS011;15515;45.588;5.276;2022-11-25T09:11:34;16.42;;;7.55;;
28252;SDS011;15515;45.588;5.276;2022-11-25T09:14:01;16.45;;;7.88;;
28252;SDS011;15515;45.588;5.276;2022-11-25T09:16:29;17.10;;;8.13;;
28252;SDS011;15515;45.588;5.276;2022-11-25T09:18:56;17.58;;;7.63;;
28252;SDS011;15515;45.588;5.276;2022-11-25T09:21:25;16.02;;;6.88;;
28252;SDS011;15515;45.588;5.276;2022-11-25T09:23:53;15.88;;;7.22;;
28252;SDS011;15515;45.588;5.276;2022-11-25T09:26:24;11.70;;;6.15;;
28252;SDS011;15515;45.588;5.276;2022-11-25T09:28:53;14.02;;;7.55;;
28252;SDS011;15515;45.588;5.276;2022-11-25T09:31:21;13.48;;;7.57;;
28252;SDS011;15515;45.588;5.276;2022-11-25T09:33:48;14.52;;;8.40;;
28252;SDS011;15515;45.588;5.276;2022-11-25T09:36:16;16.15;;;8.73;;
28252;SDS011;15515;45.588;5.276;2022-11-25T09:38:44;15.27;;;8.23;;
28252;SDS011;15515;45.588;5.276;2022-11-25T09:41:18;19.17;;;8.90;;
28252;SDS011;15515;45.588;5.276;2022-11-25T09:44:13;14.95;;;7.85;;
28252;SDS011;15515;45.588;5.276;2022-11-25T09:47:09;11.73;;;6.07;;
28252;SDS011;15515;45.588;5.276;2022-11-25T09:54:51;14.27;;;6.75;;
28252;SDS011;15515;45.588;5.276;2022-11-25T09:57:21;11.82;;;6.03;;
28252;SDS011;15515;45.588;5.276;2022-11-25T10:00:04;15.70;;;7.50;;
28252;SDS011;15515;45.588;5.276;2022-11-25T10:02:40;14.98;;;7.47;;
28252;SDS011;15515;45.588;5.276;2022-11-25T10:05:17;20.48;;;7.10;;
28252;SDS011;15515;45.588;5.276;2022-11-25T10:07:58;14.45;;;6.95;;
28252;SDS011;15515;45.588;5.276;2022-11-25T10:10:28;19.08;;;7.45;;
28252;SDS011;15515;45.588;5.276;2022-11-25T10:12:57;15.45;;;6.88;;
28252;SDS011;15515;45.588;5.276;2022-11-25T10:15:41;17.20;;;7.22;;
28252;SDS011;15515;45.588;5.276;2022-11-25T10:18:18;14.13;;;7.30;;
28252;SDS011;15515;45.588;5.276;2022-11-25T10:20:48;19.02;;;7.90;;
28252;SDS011;15515;45.588;5.276;2022-11-25T10:23:33;17.77;;;9.10;;
28252;SDS011;15515;45.588;5.276;2022-11-25T10:26:02;19.25;;;9.27;;
28252;SDS011;15515;45.588;5.276;2022-11-25T10:28:31;20.58;;;9.60;;
28252;SDS011;15515;45.588;5.276;2022-11-25T10:33:40;19.75;;;10.13;;
28252;SDS011;15515;45.588;5.276;2022-11-25T10:36:15;22.83;;;9.32;;
28252;SDS011;15515;45.588;5.276;2022-11-25T10:38:48;18.50;;;9.15;;
28252;SDS011;15515;45.588;5.276;2022-11-25T10:41:18;17.33;;;9.30;;
28252;SDS011;15515;45.588;5.276;2022-11-25T10:43:47;22.25;;;8.60;;
28252;SDS011;15515;45.588;5.276;2022-11-25T10:48:48;16.13;;;8.48;;
28252;SDS011;15515;45.588;5.276;2022-11-25T10:51:38;24.52;;;8.88;;
28252;SDS011;15515;45.588;5.276;2022-11-25T10:54:13;19.55;;;9.02;;
28252;SDS011;15515;45.588;5.276;2022-11-25T10:56:51;19.87;;;9.23;;
28252;SDS011;15515;45.588;5.276;2022-11-25T11:01:52;16.15;;;9.00;;
28252;SDS011;15515;45.588;5.276;2022-11-25T11:04:20;22.58;;;9.75;;
28252;SDS011;15515;45.588;5.276;2022-11-25T11:06:48;19.98;;;11.05;;
28252;SDS011;15515;45.588;5.276;2022-11-25T11:12:12;22.42;;;11.00;;
28252;SDS011;15515;45.588;5.276;2022-11-25T11:14:40;23.55;;;10.50;;
28252;SDS011;15515;45.588;5.276;2022-11-25T11:17:19;20.90;;;11.20;;
28252;SDS011;15515;45.588;5.276;2022-11-25T11:20:00;27.27;;;10.38;;
28252;SDS011;15515;45.588;5.276;2022-11-25T11:22:28;25.15;;;11.52;;
28252;SDS011;15515;45.588;5.276;2022-11-25T11:25:20;21.77;;;11.45;;
28252;SDS011;15515;45.588;5.276;2022-11-25T11:27:50;23.85;;;12.52;;
28252;SDS011;15515;45.588;5.276;2022-11-25T11:30:19;22.60;;;11.68;;
28252;SDS011;15515;45.588;5.276;2022-11-25T11:32:55;26.42;;;10.90;;
28252;SDS011;15515;45.588;5.276;2022-11-25T11:38:17;26.45;;;12.00;;
28252;SDS011;15515;45.588;5.276;2022-11-25T11:40:48;28.35;;;13.23;;
28252;SDS011;15515;45.588;5.276;2022-11-25T11:51:43;27.30;;;12.77;;
28252;SDS011;15515;45.588;5.276;2022-11-25T11:56:26;24.50;;;13.38;;
28252;SDS011;15515;45.588;5.276;2022-11-25T12:04:20;20.15;;;12.65;;
28252;SDS011;15515;45.588;5.276;2022-11-25T12:06:55;19.17;;;9.90;;
28252;SDS011;15515;45.588;5.276;2022-11-25T12:09:23;20.15;;;9.48;;
28252;SDS011;15515;45.588;5.276;2022-11-25T12:11:52;19.38;;;9.73;;
28252;SDS011;15515;45.588;5.276;2022-11-25T12:20:15;13.48;;;8.85;;
28252;SDS011;15515;45.588;5.276;2022-11-25T12:25:12;17.15;;;9.50;;
28252;SDS011;15515;45.588;5.276;2022-11-25T12:27:45;19.00;;;9.77;;
28252;SDS011;15515;45.588;5.276;2022-11-25T12:30:16;23.52;;;10.23;;
28252;SDS011;15515;45.588;5.276;2022-11-25T12:32:56;16.83;;;10.38;;
28252;SDS011;15515;45.588;5.276;2022-11-25T12:40:44;17.55;;;9.20;;
28252;SDS011;15515;45.588;5.276;2022-11-25T12:43:24;15.38;;;9.40;;
28252;SDS011;15515;45.588;5.276;2022-11-25T12:46:02;18.58;;;9.98;;
28252;SDS011;15515;45.588;5.276;2022-11-25T12:48:31;20.13;;;9.70;;
28252;SDS011;15515;45.588;5.276;2022-11-25T12:53:57;18.42;;;10.02;;
28252;SDS011;15515;45.588;5.276;2022-11-25T12:56:32;18.10;;;9.77;;
28252;SDS011;15515;45.588;5.276;2022-11-25T12:59:15;19.05;;;9.02;;
28252;SDS011;15515;45.588;5.276;2022-11-25T13:17:22;15.27;;;8.32;;
28252;SDS011;15515;45.588;5.276;2022-11-25T13:20:20;13.23;;;7.47;;
28252;SDS011;15515;45.588;5.276;2022-11-25T13:22:38;13.20;;;7.82;;
28252;SDS011;15515;45.588;5.276;2022-11-25T13:25:19;19.98;;;14.63;;
28252;SDS011;15515;45.588;5.276;2022-11-25T13:35:48;14.55;;;9.18;;
28252;SDS011;15515;45.588;5.276;2022-11-25T13:41:03;18.15;;;8.98;;
28252;SDS011;15515;45.588;5.276;2022-11-25T13:49:00;18.80;;;9.80;;
28252;SDS011;15515;45.588;5.276;2022-11-25T13:51:27;14.93;;;9.45;;
28252;SDS011;15515;45.588;5.276;2022-11-25T13:53:56;17.95;;;9.77;;
28252;SDS011;15515;45.588;5.276;2022-11-25T13:56:29;16.02;;;9.15;;
28252;SDS011;15515;45.588;5.276;2022-11-25T14:01:38;20.70;;;9.98;;
28252;SDS011;15515;45.588;5.276;2022-11-25T14:04:06;17.05;;;9.45;;
28252;SDS011;15515;45.588;5.276;2022-11-25T14:09:03;14.82;;;9.32;;
28252;SDS011;15515;45.588;5.276;2022-11-25T14:14:23;19.00;;;8.68;;
28252;SDS011;15515;45.588;5.276;2022-11-25T14:22:59;22.95;;;8.57;;
28252;SDS011;15515;45.588;5.276;2022-11-25T14:25:22;16.85;;;8.70;;
28252;SDS011;15515;45.588;5.276;2022-11-25T14:28:07;23.20;;;9.63;;
28252;SDS011;15515;45.588;5.276;2022-11-25T14:30:42;15.25;;;8.18;;
28252;SDS011;15515;45.588;5.276;2022-11-25T14:33:12;17.30;;;8.45;;
28252;SDS011;15515;45.588;5.276;2022-11-25T14:35:43;17.55;;;8.90;;
28252;SDS011;15515;45.588;5.276;2022-11-25T14:38:23;12.65;;;7.20;;
28252;SDS011;15515;45.588;5.276;2022-11-25T14:40:54;16.77;;;7.57;;
28252;SDS011;15515;45.588;5.276;2022-11-25T14:43:25;17.40;;;8.27;;
28252;SDS011;15515;45.588;5.276;2022-11-25T14:46:10;16.45;;;8.40;;
28252;SDS011;15515;45.588;5.276;2022-11-25T14:48:38;17.92;;;7.72;;
28252;SDS011;15515;45.588;5.276;2022-11-25T14:51:06;15.25;;;7.30;;
28252;SDS011;15515;45.588;5.276;2022-11-25T14:53:42;22.92;;;8.00;;
28252;SDS011;15515;45.588;5.276;2022-11-25T14:56:13;22.35;;;7.68;;
28252;SDS011;15515;45.588;5.276;2022-11-25T14:58:45;18.15;;;7.40;;
28252;SDS011;15515;45.588;5.276;2022-11-25T15:01:29;15.55;;;6.75;;
28252;SDS011;15515;45.588;5.276;2022-11-25T15:06:35;13.50;;;6.93;;
28252;SDS011;15515;45.588;5.276;2022-11-25T15:09:02;16.20;;;7.80;;
28252;SDS011;15515;45.588;5.276;2022-11-25T15:11:31;19.02;;;7.68;;
28252;SDS011;15515;45.588;5.276;2022-11-25T15:14:03;16.98;;;7.28;;
28252;SDS011;15515;45.588;5.276;2022-11-25T15:16:32;17.73;;;7.70;;
28252;SDS011;15515;45.588;5.276;2022-11-25T15:19:01;16.92;;;8.05;;
28252;SDS011;15515;45.588;5.276;2022-11-25T15:21:36;18.15;;;7.85;;
28252;SDS011;15515;45.588;5.276;2022-11-25T15:27:22;21.58;;;9.50;;
28252;SDS011;15515;45.588;5.276;2022-11-25T15:29:51;15.27;;;8.60;;
28252;SDS011;15515;45.588;5.276;2022-11-25T15:32:27;19.90;;;9.30;;
28252;SDS011;15515;45.588;5.276;2022-11-25T15:34:56;16.27;;;8.35;;
28252;SDS011;15515;45.588;5.276;2022-11-25T15:37:24;16.92;;;8.95;;
28252;SDS011;15515;45.588;5.276;2022-11-25T15:42:40;19.60;;;9.43;;
28252;SDS011;15515;45.588;5.276;2022-11-25T15:45:09;20.38;;;9.45;;
28252;SDS011;15515;45.588;5.276;2022-11-25T15:47:37;22.00;;;10.07;;
28252;SDS011;15515;45.588;5.276;2022-11-25T15:52:45;19.52;;;10.50;;
28252;SDS011;15515;45.588;5.276;2022-11-25T15:55:33;20.90;;;9.85;;
28252;SDS011;15515;45.588;5.276;2022-11-25T15:58:20;20.63;;;9.68;;
28252;SDS011;15515;45.588;5.276;2022-11-25T16:03:45;19.65;;;10.55;;
28252;SDS011;15515;45.588;5.276;2022-11-25T16:06:20;19.55;;;9.88;;
28252;SDS011;15515;45.588;5.276;2022-11-25T16:08:53;19.85;;;9.95;;
28252;SDS011;15515;45.588;5.276;2022-11-25T16:11:21;21.27;;;10.95;;
28252;SDS011;15515;45.588;5.276;2022-11-25T16:13:49;20.75;;;10.27;;
28252;SDS011;15515;45.588;5.276;2022-11-25T16:24:23;25.55;;;10.82;;
28252;SDS011;15515;45.588;5.276;2022-11-25T16:27:03;31.98;;;10.95;;
28252;SDS011;15515;45.588;5.276;2022-11-25T19:21:32;37.97;;;18.00;;
28252;SDS011;15515;45.588;5.276;2022-11-25T19:24:59;38.83;;;17.33;;
28252;SDS011;15515;45.588;5.276;2022-11-25T19:28:05;33.90;;;16.33;;
28252;SDS011;15515;45.588;5.276;2022-11-25T19:31:33;35.30;;;15.23;;
28252;SDS011;15515;45.588;5.276;2022-11-25T19:34:54;36.35;;;16.40;;
28252;SDS011;15515;45.588;5.276;2022-11-25T19:38:06;36.47;;;16.58;;
28252;SDS011;15515;45.588;5.276;2022-11-25T19:41:03;36.08;;;16.65;;
28252;SDS011;15515;45.588;5.276;2022-11-25T19:44:08;34.28;;;15.65;;
